Time;durP1;ratioP1;P1;durP2;ratioP2;P2;SDS_P1;SDS_P2;PMS_P1;PMS_P2;Temp;Humidity;BMP_temperature;BMP_pressure;BME280_temperature;BME280_humidity;BME280_pressure;Samples;Min_cycle;Max_cycle;Signal;HPM_P1;HPM_P2
2023/10/09 00:10:48;;;;;;;4.17;3.17;;;3.50;99.80;;;;;;4699501;29;20225;-85
2023/10/09 00:15:07;;;;;;;5.63;3.83;;;3.40;99.40;;;;;;4623799;29;20494;-84
2023/10/09 00:45:45;;;;;;;7.57;3.90;;;3.80;97.50;;;;;;4720420;29;20788;-84
2023/10/09 01:06:28;;;;;;;5.77;4.00;;;4.00;96.90;;;;;;4715964;29;20227;-85
2023/10/09 01:26:26;;;;;;;6.07;3.60;;;4.10;96.30;;;;;;4728272;29;20460;-84
2023/10/09 01:57:05;;;;;;;5.07;3.57;;;3.60;99.90;;;;;;4771968;29;20760;-81
2023/10/09 02:57:51;;;;;;;6.57;3.93;;;4.30;94.30;;;;;;4709812;29;20802;-85
2023/10/09 03:28:17;;;;;;;6.17;3.67;;;4.20;94.60;;;;;;4842203;28;20221;-85
2023/10/09 03:53:42;;;;;;;7.03;4.33;;;4.10;96.10;;;;;;4707102;29;20303;-84
2023/10/09 04:09:14;;;;;;;7.20;4.20;;;4.10;97.70;;;;;;4702614;29;20378;-85
2023/10/09 04:13:40;;;;;;;6.73;4.17;;;4.20;96.50;;;;;;4652907;29;20404;-83
2023/10/09 04:43:46;;;;;;;8.33;4.90;;;4.60;94.50;;;;;;4683388;29;20646;-86
2023/10/09 05:04:35;;;;;;;7.73;4.57;;;4.70;93.60;;;;;;4659993;29;20238;-83
2023/10/09 05:29:59;;;;;;;6.17;4.40;;;4.60;94.00;;;;;;4579232;29;20577;-81
2023/10/09 06:10:39;;;;;;;6.57;4.10;;;5.30;93.40;;;;;;4852207;28;20214;-80
2023/10/09 06:35:56;;;;;;;7.33;3.90;;;5.70;90.90;;;;;;4736021;29;21621;-81
2023/10/09 07:11:20;;;;;;;8.87;4.23;;;6.60;89.60;;;;;;4637375;29;20855;-79
2023/10/09 07:36:56;;;;;;;5.40;4.00;;;7.50;90.80;;;;;;4627128;29;20459;-79
2023/10/09 07:57:15;;;;;;;5.17;3.67;;;8.50;79.50;;;;;;4641866;29;20697;-79
2023/10/09 08:32:18;;;;;;;5.73;3.23;;;9.70;75.40;;;;;;4602343;29;21155;-84
2023/10/09 09:07:42;;;;;;;3.37;2.93;;;10.00;73.10;;;;;;4617587;29;20934;-82
2023/10/09 09:33:26;;;;;;;4.63;2.50;;;10.60;73.20;;;;;;4690254;29;20220;-81
2023/10/09 10:08:39;;;;;;;3.27;2.37;;;10.90;64.70;;;;;;4725968;28;20271;-82
2023/10/09 10:34:30;;;;;;;4.50;2.30;;;12.00;61.00;;;;;;4906047;28;20235;-87
2023/10/09 11:04:58;;;;;;;2.53;1.77;;;12.00;59.30;;;;;;4920219;28;20214;-86
2023/10/09 11:09:22;;;;;;;4.57;1.90;;;12.00;58.40;;;;;;4802927;28;20219;-84
2023/10/09 11:35:28;;;;;;;3.50;2.00;;;11.50;58.80;;;;;;4936620;28;20283;-86
2023/10/09 11:39:51;;;;;;;4.73;2.40;;;11.40;58.70;;;;;;4923656;28;20209;-86
2023/10/09 12:05:44;;;;;;;4.03;2.83;;;11.30;61.00;;;;;;4856561;28;20224;-83
2023/10/09 12:51:29;;;;;;;5.53;3.97;;;11.40;78.50;;;;;;4713625;29;20960;-84
2023/10/09 13:16:36;;;;;;;7.47;4.37;;;11.00;80.90;;;;;;4815594;29;20240;-83
2023/10/09 13:42:14;;;;;;;6.63;4.90;;;10.50;83.90;;;;;;4906081;28;20223;-84
2023/10/09 14:12:40;;;;;;;8.83;5.07;;;9.80;87.40;;;;;;4762128;29;20227;-84
2023/10/09 14:37:48;;;;;;;7.63;5.10;;;9.00;92.00;;;;;;4701429;29;20644;-82
2023/10/09 14:57:58;;;;;;;6.67;4.90;;;8.60;95.00;;;;;;4632198;29;20285;-84
2023/10/09 15:23:38;;;;;;;7.57;4.50;;;8.70;98.00;;;;;;4688203;29;20235;-84
2023/10/09 15:48:40;;;;;;;7.63;4.77;;;8.10;99.90;;;;;;4654982;29;20549;-82
2023/10/09 16:19:32;;;;;;;9.43;6.63;;;7.30;99.90;;;;;;4754805;29;20258;-83
2023/10/09 16:23:51;;;;;;;10.53;6.70;;;7.30;99.90;;;;;;4702688;29;20706;-84
2023/10/09 16:49:54;;;;;;;12.70;7.53;;;6.80;99.90;;;;;;4782107;29;20213;-84
2023/10/09 17:20:09;;;;;;;9.60;7.67;;;6.00;99.90;;;;;;4861419;28;20200;-83
2023/10/09 17:50:46;;;;;;;14.40;10.40;;;5.80;99.90;;;;;;4804309;29;20670;-83
2023/10/09 18:11:05;;;;;;;18.57;11.93;;;5.20;99.90;;;;;;4713448;29;20232;-84
2023/10/09 18:15:24;;;;;;;18.10;12.27;;;5.20;99.90;;;;;;4605663;30;20972;-85
2023/10/09 19:16:56;;;;;;;63.17;33.50;;;5.30;99.90;;;;;;4968644;28;20224;-82
2023/10/09 19:42:12;;;;;;;44.07;31.53;;;5.10;99.90;;;;;;4893392;28;20231;-83
2023/10/09 20:02:15;;;;;;;36.33;28.00;;;4.50;99.90;;;;;;4756248;29;20712;-85
2023/10/09 20:32:45;;;;;;;33.97;23.10;;;4.90;99.90;;;;;;4873174;28;20187;-82
2023/10/09 20:52:47;;;;;;;43.07;26.53;;;4.70;99.90;;;;;;4693218;29;21170;-84
2023/10/09 21:23:06;;;;;;;42.60;28.93;;;4.40;99.90;;;;;;4648362;29;20706;-84
2023/10/09 21:43:39;;;;;;;43.40;31.70;;;5.20;99.90;;;;;;4644370;29;21118;-83
2023/10/09 22:08:46;;;;;;;37.70;27.43;;;5.50;99.90;;;;;;4569500;30;20579;-83
2023/10/09 22:34:30;;;;;;;36.90;26.50;;;5.10;99.90;;;;;;4556813;30;20266;-83
2023/10/09 23:00:00;;;;;;;37.13;26.77;;;4.80;99.90;;;;;;4694119;29;20303;-83
2023/10/09 23:20:17;;;;;;;35.73;26.77;;;4.90;99.90;;;;;;4644156;29;20219;-84
2023/10/09 23:45:43;;;;;;;35.17;27.23;;;4.80;99.90;;;;;;4722173;29;20322;-84
